Orlik, Russia
Current Conditions -  °F | °C
As of 12:30 AM on Sunday 23 Nov 2014 (Local Time) from UIII Reporting Station
Clear Clear  
Wind Chill:   Ceiling: Unl
Heat Index: 12°   Visibility: 6mi
Dew Point: 10°   Wind: 7mph
Humidity: 92%   Direction: 90°E
Pressure: 29.91"   Gusts: NA
Location:  52.51°N, 99.83°E
Report Text: UIII 221630Z 09003MPS CAVOK M11/M12 Q1013 NOSIG RMK QFE717/095712350150
Loading
Personal Weather Stations






























Interactive Weather Map New forecast layout! Learn more

10-Day Weather Forecast

Advertisements
Track Severe Weather on mobile